createdAt,value
2023-02-23T00:02:07.476Z,10.63
2023-02-23T00:04:35.928Z,7.63
2023-02-23T00:07:03.383Z,8.05
2023-02-23T00:09:35.759Z,6.80
2023-02-23T00:12:08.326Z,6.43
2023-02-23T00:14:38.594Z,6.45
2023-02-23T00:17:14.969Z,7.78
2023-02-23T00:19:44.005Z,7.35
2023-02-23T00:22:12.347Z,8.02
2023-02-23T00:24:40.771Z,7.22
2023-02-23T00:27:07.882Z,5.32
2023-02-23T00:29:39.596Z,6.28
2023-02-23T00:32:06.917Z,6.10
2023-02-23T00:34:36.096Z,7.65
2023-02-23T00:37:03.954Z,6.07
2023-02-23T00:39:30.841Z,7.13
2023-02-23T00:42:03.329Z,7.20
2023-02-23T00:44:32.523Z,6.63
2023-02-23T00:47:00.351Z,11.57
2023-02-23T00:49:27.682Z,4.60
2023-02-23T00:51:55.440Z,12.73
2023-02-23T00:54:22.519Z,11.65
2023-02-23T00:56:50.644Z,7.47
2023-02-23T00:59:19.876Z,7.90
2023-02-23T01:01:47.107Z,6.40
2023-02-23T01:04:14.763Z,10.48
2023-02-23T01:06:42.704Z,5.45
2023-02-23T01:09:13.693Z,6.55
2023-02-23T01:11:41.702Z,5.65
2023-02-23T01:14:10.603Z,7.50
2023-02-23T01:16:39.156Z,6.38
2023-02-23T01:19:06.457Z,7.70
2023-02-23T01:21:40.239Z,7.80
2023-02-23T01:26:38.687Z,7.28
2023-02-23T01:29:15.210Z,6.22
2023-02-23T01:31:45.398Z,7.35
2023-02-23T01:34:15.811Z,7.00
2023-02-23T01:36:45.266Z,6.10
2023-02-23T01:39:17.791Z,7.55
2023-02-23T01:41:45.501Z,6.78
2023-02-23T01:44:15.518Z,7.03
2023-02-23T01:46:45.612Z,5.30
2023-02-23T01:49:16.496Z,6.35
2023-02-23T01:51:50.332Z,5.43
2023-02-23T01:54:25.052Z,5.60
2023-02-23T01:56:58.573Z,6.40
2023-02-23T01:59:38.340Z,9.45
2023-02-23T02:02:05.798Z,8.68
2023-02-23T02:04:44.848Z,8.73
2023-02-23T02:07:20.860Z,8.65
2023-02-23T02:10:10.057Z,7.32
2023-02-23T02:12:52.202Z,8.02
2023-02-23T02:15:22.698Z,8.20
2023-02-23T02:18:09.585Z,6.43
2023-02-23T02:21:11.817Z,5.85
2023-02-23T02:23:42.249Z,6.15
2023-02-23T02:26:39.031Z,5.97
2023-02-23T02:29:11.942Z,7.25
2023-02-23T02:32:01.595Z,5.93
2023-02-23T02:35:05.180Z,5.90
2023-02-23T02:38:11.028Z,6.72
2023-02-23T02:41:01.792Z,6.30
2023-02-23T02:43:38.102Z,6.57
2023-02-23T02:46:16.218Z,4.88
2023-02-23T02:49:14.314Z,6.25
2023-02-23T02:51:47.581Z,5.95
2023-02-23T02:54:43.944Z,5.15
2023-02-23T02:57:13.972Z,4.57
2023-02-23T03:00:04.973Z,5.88
2023-02-23T03:02:53.335Z,5.90
2023-02-23T03:05:42.900Z,5.43
2023-02-23T03:08:37.624Z,6.00
2023-02-23T03:11:29.708Z,5.82
2023-02-23T03:14:41.178Z,5.80
2023-02-23T03:17:46.758Z,5.10
2023-02-23T03:20:51.435Z,7.82
2023-02-23T03:26:55.263Z,6.00
2023-02-23T03:29:44.102Z,7.95
2023-02-23T03:32:39.807Z,9.35
2023-02-23T03:35:32.257Z,6.50
2023-02-23T03:38:46.043Z,6.65
2023-02-23T03:41:35.017Z,7.20
2023-02-23T03:44:31.677Z,7.10
2023-02-23T03:47:19.825Z,5.38
2023-02-23T03:50:08.494Z,5.85
2023-02-23T03:53:01.736Z,7.07
2023-02-23T03:55:53.113Z,7.80
2023-02-23T03:58:47.110Z,6.57
2023-02-23T04:01:35.749Z,7.35
2023-02-23T04:04:23.378Z,5.32
2023-02-23T04:07:11.261Z,5.95
2023-02-23T04:09:57.042Z,8.73
2023-02-23T04:12:59.046Z,7.05
2023-02-23T04:15:34.131Z,6.80
2023-02-23T04:18:04.957Z,6.07
2023-02-23T04:20:32.539Z,9.93
2023-02-23T04:23:00.219Z,6.75
2023-02-23T04:25:28.635Z,9.18
2023-02-23T04:27:56.006Z,7.95
2023-02-23T04:30:28.690Z,8.60
2023-02-23T04:32:56.798Z,6.40
2023-02-23T04:35:23.952Z,5.32
2023-02-23T04:37:51.161Z,6.80
2023-02-23T04:40:18.726Z,4.60
2023-02-23T04:42:46.378Z,6.53
2023-02-23T04:45:15.061Z,7.07
2023-02-23T04:47:42.392Z,6.35
2023-02-23T04:50:10.435Z,5.95
2023-02-23T04:52:39.181Z,6.22
2023-02-23T04:55:08.629Z,7.50
2023-02-23T04:57:36.270Z,5.88
2023-02-23T05:00:04.926Z,4.78
2023-02-23T05:02:32.414Z,4.55
2023-02-23T05:04:59.538Z,7.22
2023-02-23T05:07:26.687Z,4.72
2023-02-23T05:09:53.900Z,5.35
2023-02-23T05:12:21.177Z,6.47
2023-02-23T05:14:48.289Z,6.20
2023-02-23T05:17:15.577Z,7.57
2023-02-23T05:19:42.835Z,6.57
2023-02-23T05:22:12.858Z,7.00
2023-02-23T05:24:41.084Z,11.70
2023-02-23T05:27:20.366Z,12.95
2023-02-23T05:29:51.723Z,10.27
2023-02-23T05:32:18.932Z,5.07
2023-02-23T05:35:06.107Z,5.88
2023-02-23T05:40:45.494Z,7.85
2023-02-23T05:43:14.677Z,10.77
2023-02-23T05:45:43.407Z,20.02
2023-02-23T07:56:12.580Z,13.38
2023-02-23T08:25:02.093Z,23.42
2023-02-23T08:27:29.383Z,20.70
2023-02-23T08:29:56.885Z,18.92
2023-02-23T08:32:23.733Z,23.77
2023-02-23T08:34:50.603Z,26.70
2023-02-23T08:37:17.414Z,20.77
2023-02-23T08:39:44.406Z,29.40
2023-02-23T08:42:11.136Z,19.00
2023-02-23T08:44:37.935Z,14.35
2023-02-23T08:47:05.134Z,12.80
2023-02-23T08:49:33.157Z,14.15
2023-02-23T08:51:59.917Z,12.02
2023-02-23T08:54:27.259Z,10.27
2023-02-23T08:56:56.971Z,13.52
2023-02-23T08:59:24.042Z,15.20
2023-02-23T09:01:50.858Z,12.93
2023-02-23T09:04:18.689Z,14.73
2023-02-23T09:06:47.623Z,15.93
2023-02-23T09:09:14.933Z,15.57
2023-02-23T09:24:28.864Z,16.05
2023-02-23T09:27:07.327Z,19.17
2023-02-23T09:29:38.265Z,17.27
2023-02-23T09:32:05.548Z,20.08
2023-02-23T09:34:32.662Z,19.92
2023-02-23T09:37:02.891Z,19.10
2023-02-23T09:39:38.252Z,20.58
2023-02-23T09:42:08.727Z,19.75
2023-02-23T09:45:13.448Z,19.88
2023-02-23T09:47:55.054Z,21.98
2023-02-23T09:50:25.713Z,23.02
2023-02-23T09:53:01.330Z,23.13
2023-02-23T09:55:29.426Z,22.98
2023-02-23T09:58:02.412Z,26.85
2023-02-23T10:00:31.361Z,29.15
2023-02-23T10:03:22.470Z,30.83
2023-02-23T10:05:58.561Z,34.70
2023-02-23T10:08:49.467Z,34.30
2023-02-23T10:11:24.005Z,39.45
2023-02-23T10:14:20.759Z,41.58
2023-02-23T10:17:01.093Z,43.25
2023-02-23T10:20:00.135Z,35.83
2023-02-23T10:22:29.077Z,34.40
2023-02-23T10:25:03.311Z,33.00
2023-02-23T10:27:37.961Z,37.50
2023-02-23T10:30:24.343Z,31.25
2023-02-23T10:32:59.490Z,34.35
2023-02-23T10:35:29.693Z,34.83
2023-02-23T10:37:58.083Z,29.90
2023-02-23T10:40:28.970Z,32.20
2023-02-23T10:42:58.423Z,30.42
2023-02-23T10:45:27.635Z,31.33
2023-02-23T10:48:02.042Z,38.25
2023-02-23T10:50:32.171Z,36.05
2023-02-23T10:53:24.570Z,34.47
2023-02-23T10:56:16.303Z,30.20
2023-02-23T10:58:58.142Z,33.45
2023-02-23T11:02:00.872Z,34.35
2023-02-23T11:04:35.225Z,34.47
2023-02-23T11:07:10.265Z,32.60
2023-02-23T11:09:46.596Z,35.67
2023-02-23T11:12:25.647Z,36.47
2023-02-23T11:14:55.279Z,36.80
2023-02-23T11:17:30.414Z,38.58
2023-02-23T11:20:02.510Z,46.72
2023-02-23T11:22:37.559Z,38.00
2023-02-23T11:25:17.024Z,40.60
2023-02-23T11:27:51.808Z,39.95
2023-02-23T11:30:24.433Z,43.55
2023-02-23T11:32:54.893Z,41.42
2023-02-23T11:35:21.805Z,41.22
2023-02-23T11:37:50.970Z,40.97
2023-02-23T11:40:26.460Z,41.47
2023-02-23T11:43:10.793Z,39.45
2023-02-23T11:45:49.395Z,36.60
2023-02-23T11:48:26.645Z,44.88
2023-02-23T11:50:55.118Z,40.60
2023-02-23T11:53:37.968Z,41.22
2023-02-23T11:56:13.367Z,41.30
2023-02-23T11:58:45.107Z,40.20
2023-02-23T12:01:17.410Z,42.03
2023-02-23T12:03:56.006Z,36.10
2023-02-23T12:06:39.540Z,37.53
2023-02-23T12:09:24.189Z,37.53
2023-02-23T12:12:00.912Z,36.40
2023-02-23T12:14:39.108Z,40.13
2023-02-23T12:17:38.000Z,34.60
2023-02-23T12:20:24.528Z,31.50
2023-02-23T12:22:59.206Z,37.33
2023-02-23T12:25:57.818Z,38.13
2023-02-23T12:29:20.612Z,35.33
2023-02-23T12:31:54.124Z,46.22
2023-02-23T12:34:39.540Z,37.22
2023-02-23T12:37:31.495Z,41.63
2023-02-23T12:40:08.316Z,35.92
2023-02-23T12:43:17.801Z,37.22
2023-02-23T12:45:55.315Z,44.03
2023-02-23T12:48:41.115Z,46.15
2023-02-23T12:51:25.838Z,38.95
2023-02-23T12:53:53.454Z,38.00
2023-02-23T12:56:23.301Z,38.92
2023-02-23T12:59:14.615Z,41.75
2023-02-23T13:01:56.233Z,35.08
2023-02-23T13:04:55.279Z,41.92
2023-02-23T13:08:12.983Z,47.65
2023-02-23T13:11:09.924Z,42.90
2023-02-23T13:14:01.263Z,39.85
2023-02-23T13:16:51.727Z,41.33
2023-02-23T13:19:32.534Z,40.72
2023-02-23T13:22:08.024Z,38.20
2023-02-23T13:25:00.383Z,41.05
2023-02-23T13:27:47.105Z,44.22
2023-02-23T13:30:16.995Z,39.90
2023-02-23T13:33:06.515Z,38.53
2023-02-23T13:35:39.521Z,37.13
2023-02-23T13:38:35.014Z,38.22
2023-02-23T13:41:18.180Z,35.53
2023-02-23T13:44:22.674Z,41.70
2023-02-23T13:46:57.718Z,34.97
2023-02-23T13:49:36.497Z,35.38
2023-02-23T13:52:14.551Z,34.17
2023-02-23T13:54:53.573Z,36.25
2023-02-23T13:57:22.937Z,31.38
2023-02-23T13:59:51.641Z,34.38
2023-02-23T14:02:41.326Z,34.92
2023-02-23T14:05:18.876Z,46.00
2023-02-23T14:07:52.074Z,98.68
2023-02-23T14:10:29.961Z,30.58
2023-02-23T14:13:03.117Z,36.55
2023-02-23T14:15:39.705Z,33.65
2023-02-23T14:18:20.295Z,35.20
2023-02-23T14:20:53.649Z,34.00
2023-02-23T14:24:08.728Z,36.70
2023-02-23T14:26:39.302Z,39.90
2023-02-23T14:29:27.797Z,32.45
2023-02-23T14:32:05.030Z,32.75
2023-02-23T14:34:54.106Z,36.53
2023-02-23T14:37:26.011Z,39.50
2023-02-23T14:40:18.703Z,35.78
2023-02-23T14:42:53.818Z,37.63
2023-02-23T14:45:27.523Z,38.13
2023-02-23T14:48:17.438Z,37.20
2023-02-23T14:50:47.063Z,34.80
2023-02-23T14:53:22.346Z,32.38
2023-02-23T14:55:50.534Z,30.83
2023-02-23T14:58:35.469Z,28.75
2023-02-23T15:01:02.421Z,29.42
2023-02-23T15:03:30.590Z,29.30
2023-02-23T15:06:00.691Z,25.02
2023-02-23T15:08:30.566Z,25.42
2023-02-23T15:11:11.016Z,31.33
2023-02-23T15:13:42.777Z,27.50
2023-02-23T15:16:23.342Z,27.60
2023-02-23T15:19:31.133Z,31.50
2023-02-23T15:22:00.937Z,29.50
2023-02-23T15:24:42.653Z,25.00
2023-02-23T15:27:29.018Z,24.88
2023-02-23T15:29:57.122Z,31.38
2023-02-23T15:32:26.336Z,25.95
2023-02-23T15:34:56.631Z,27.08
2023-02-23T15:37:29.446Z,23.05
2023-02-23T15:40:05.464Z,22.55
2023-02-23T15:42:49.339Z,26.52
2023-02-23T15:45:54.698Z,25.83
2023-02-23T15:48:28.893Z,28.15
2023-02-23T15:50:57.998Z,31.88
2023-02-23T15:53:33.674Z,32.40
2023-02-23T15:56:28.131Z,33.83
2023-02-23T15:59:04.151Z,30.42
2023-02-23T16:01:32.755Z,31.52
2023-02-23T16:04:16.354Z,28.35
2023-02-23T16:06:55.790Z,31.92
2023-02-23T16:09:24.372Z,32.03
2023-02-23T16:12:04.992Z,33.53
2023-02-23T16:14:46.936Z,33.55
2023-02-23T16:17:21.535Z,30.58
2023-02-23T16:19:48.929Z,32.25
2023-02-23T16:22:23.382Z,30.25
2023-02-23T16:25:01.078Z,27.92
2023-02-23T16:27:30.426Z,31.92
2023-02-23T16:30:25.931Z,30.38
2023-02-23T16:33:11.862Z,29.92
2023-02-23T16:35:46.060Z,31.00
2023-02-23T16:38:33.624Z,35.80
2023-02-23T16:41:03.973Z,39.42
2023-02-23T16:43:35.516Z,31.10
2023-02-23T16:46:03.072Z,30.90
2023-02-23T16:48:30.472Z,32.45
2023-02-23T16:51:02.057Z,32.08
2023-02-23T16:53:30.333Z,30.25
2023-02-23T16:56:01.314Z,30.77
2023-02-23T16:58:30.908Z,29.33
2023-02-23T17:00:58.427Z,29.67
2023-02-23T17:03:27.677Z,30.48
2023-02-23T17:05:55.536Z,27.05
2023-02-23T17:08:23.384Z,26.13
2023-02-23T17:10:52.908Z,28.13
2023-02-23T17:13:25.484Z,34.58
2023-02-23T17:15:56.451Z,48.25
2023-02-23T17:18:31.989Z,45.63
2023-02-23T17:21:02.799Z,51.28
2023-02-23T17:23:50.933Z,32.20
2023-02-23T17:26:21.455Z,38.13
2023-02-23T17:28:49.169Z,27.42
2023-02-23T17:31:18.483Z,28.67
2023-02-23T17:33:46.510Z,29.00
2023-02-23T17:36:17.521Z,28.83
2023-02-23T17:38:48.008Z,25.08
2023-02-23T17:41:20.560Z,26.63
2023-02-23T17:43:47.794Z,25.90
2023-02-23T17:46:17.382Z,25.90
2023-02-23T17:48:46.885Z,32.42
2023-02-23T17:51:17.037Z,32.08
2023-02-23T17:53:45.521Z,25.60
2023-02-23T17:56:12.668Z,24.65
2023-02-23T17:58:40.573Z,25.80
2023-02-23T18:01:09.333Z,22.92
2023-02-23T18:03:37.506Z,27.48
2023-02-23T18:06:10.110Z,27.67
2023-02-23T18:08:38.791Z,28.08
2023-02-23T18:11:06.497Z,61.85
2023-02-23T18:13:41.386Z,36.90
2023-02-23T18:16:11.083Z,43.83
2023-02-23T18:18:39.950Z,25.85
2023-02-23T18:21:13.074Z,23.52
2023-02-23T18:23:41.830Z,24.65
2023-02-23T18:26:17.927Z,22.63
2023-02-23T18:28:46.380Z,27.48
2023-02-23T18:31:23.756Z,31.65
2023-02-23T18:33:55.053Z,43.85
2023-02-23T18:36:24.859Z,40.10
2023-02-23T18:38:52.560Z,40.05
2023-02-23T18:41:20.449Z,34.22
2023-02-23T18:43:48.081Z,37.67
2023-02-23T18:46:16.263Z,31.85
2023-02-23T18:48:44.160Z,29.88
2023-02-23T18:51:14.924Z,29.25
2023-02-23T18:53:42.844Z,25.42
2023-02-23T18:56:16.008Z,23.83
2023-02-23T18:58:45.186Z,23.92
2023-02-23T19:01:13.718Z,25.95
2023-02-23T19:03:41.891Z,25.00
2023-02-23T19:06:10.644Z,25.83
2023-02-23T19:08:37.961Z,25.50
2023-02-23T19:11:05.277Z,25.65
2023-02-23T19:13:32.242Z,26.33
2023-02-23T19:16:04.794Z,27.95
2023-02-23T19:18:32.229Z,28.10
2023-02-23T19:20:59.186Z,33.80
2023-02-23T19:23:26.130Z,31.27
2023-02-23T19:25:54.337Z,28.15
2023-02-23T19:28:22.491Z,29.33
2023-02-23T19:30:50.627Z,30.58
2023-02-23T19:33:18.629Z,29.45
2023-02-23T19:35:45.763Z,27.27
2023-02-23T19:38:12.843Z,28.23
2023-02-23T19:40:43.889Z,26.95
2023-02-23T19:43:12.763Z,29.15
2023-02-23T19:45:46.824Z,28.92
2023-02-23T19:48:15.939Z,26.40
2023-02-23T19:50:49.686Z,25.40
2023-02-23T19:55:45.472Z,24.02
2023-02-23T19:58:13.425Z,21.65
2023-02-23T20:00:40.539Z,22.85
2023-02-23T20:03:07.618Z,21.95
2023-02-23T20:05:43.346Z,24.70
2023-02-23T20:08:10.431Z,23.02
2023-02-23T20:10:41.679Z,23.38
2023-02-23T20:13:08.822Z,23.10
2023-02-23T20:15:37.601Z,26.80
2023-02-23T20:18:07.393Z,28.80
2023-02-23T20:20:35.973Z,23.95
2023-02-23T20:23:08.275Z,22.50
2023-02-23T20:25:36.268Z,24.30
2023-02-23T20:28:03.884Z,28.45
2023-02-23T20:30:31.051Z,28.95
2023-02-23T20:33:02.448Z,28.40
2023-02-23T20:35:32.557Z,33.10
2023-02-23T20:38:00.016Z,32.38
2023-02-23T20:40:27.843Z,34.42
2023-02-23T20:42:54.885Z,31.30
2023-02-23T20:45:24.607Z,31.45
2023-02-23T20:47:53.481Z,29.20
2023-02-23T20:50:25.795Z,29.80
2023-02-23T20:52:52.857Z,27.45
2023-02-23T20:55:22.480Z,29.48
2023-02-23T20:57:49.707Z,30.52
2023-02-23T21:00:24.359Z,33.22
2023-02-23T21:02:55.863Z,32.45
2023-02-23T21:05:26.390Z,39.03
2023-02-23T21:07:53.568Z,35.97
2023-02-23T21:10:21.708Z,32.70
2023-02-23T21:12:50.223Z,26.70
2023-02-23T21:15:17.372Z,30.85
2023-02-23T21:17:44.628Z,29.65
2023-02-23T21:20:14.134Z,29.92
2023-02-23T21:22:41.233Z,31.55
2023-02-23T21:25:10.951Z,37.90
2023-02-23T21:27:39.600Z,35.65
2023-02-23T21:30:09.700Z,30.35
2023-02-23T21:32:41.550Z,32.90
2023-02-23T21:35:13.366Z,33.97
2023-02-23T21:37:42.033Z,28.65
2023-02-23T21:40:12.208Z,34.03
2023-02-23T21:42:41.079Z,27.23
2023-02-23T21:45:11.133Z,26.80
2023-02-23T21:47:41.851Z,28.08
2023-02-23T21:50:14.011Z,26.00
2023-02-23T21:52:46.096Z,27.85
2023-02-23T21:55:23.417Z,28.98
2023-02-23T21:57:52.107Z,25.50
2023-02-23T22:00:20.986Z,25.27
2023-02-23T22:02:48.553Z,24.05
2023-02-23T22:05:17.900Z,24.45
2023-02-23T22:07:50.239Z,26.90
2023-02-23T22:10:18.990Z,21.67
2023-02-23T22:12:46.184Z,26.23
2023-02-23T22:15:15.885Z,23.02
2023-02-23T22:17:44.446Z,25.90
2023-02-23T22:20:14.283Z,26.08
2023-02-23T22:22:43.017Z,23.92
2023-02-23T22:25:10.633Z,22.58
2023-02-23T22:27:37.913Z,25.60
2023-02-23T22:30:07.731Z,27.13
2023-02-23T22:32:36.941Z,24.58
2023-02-23T22:35:06.304Z,25.45
2023-02-23T22:37:33.854Z,23.92
2023-02-23T22:40:13.193Z,23.70
2023-02-23T22:42:40.235Z,24.20
2023-02-23T22:45:13.126Z,22.52
2023-02-23T22:47:43.358Z,23.20
2023-02-23T22:50:18.396Z,22.88
2023-02-23T22:55:38.788Z,22.92
2023-02-23T22:58:12.346Z,26.60
2023-02-23T23:00:42.129Z,24.42
2023-02-23T23:03:10.628Z,24.23
2023-02-23T23:05:39.786Z,22.40
2023-02-23T23:08:09.986Z,25.77
2023-02-23T23:10:38.170Z,26.10
2023-02-23T23:13:05.624Z,26.02
2023-02-23T23:15:32.872Z,27.55
2023-02-23T23:17:59.981Z,28.05
2023-02-23T23:20:26.927Z,27.20
2023-02-23T23:22:54.965Z,27.75
2023-02-23T23:25:23.454Z,28.50
2023-02-23T23:27:54.795Z,30.33
2023-02-23T23:30:21.847Z,27.75
2023-02-23T23:32:49.448Z,27.67
2023-02-23T23:35:16.840Z,26.58
2023-02-23T23:37:44.284Z,25.55
2023-02-23T23:40:14.564Z,24.25
2023-02-23T23:42:46.879Z,27.67
2023-02-23T23:45:16.492Z,26.90
2023-02-23T23:47:45.294Z,28.45
2023-02-23T23:50:14.496Z,26.77
2023-02-23T23:52:44.714Z,26.48
2023-02-23T23:55:15.194Z,27.70
2023-02-23T23:57:44.460Z,27.77
